Terminal Aerodrome Forecast
Issued by NWS Sterling, VA

Current Version | Previous Version | Graphics & Text | Print | Product List | Glossary On
Versions: 1 2 3 4 5 6 7 8 9 10 11 12 13 14 15 16 17 18 19 20 21 22 23 24 25
000
FTUS41 KLWX 302054 AAA
TAFDCA
TAF AMD
KDCA 302054Z 3021/0118 11005KT P6SM OVC025
     FM302300 12007KT P6SM OVC040
     FM010100 12008KT P6SM OVC025
     FM010300 13009KT P6SM -RA OVC010
     FM010900 13005KT P6SM -RA OVC008
     FM011200 13007KT 3SM -RA BR OVC008
     FM011400 16007KT 3SM -RA BR OVC003=

USA.gov is the U.S. government's official web portal to all federal, state and local government web resources and services.